sensor_id;sensor_type;location;lat;lon;timestamp;pressure;altitude;pressure_sealevel;temperature;humidity
56671;BME280;42545;50.054;8.306;2022-09-03T00:01:48;99576.06;;;17.28;46.85
56671;BME280;42545;50.054;8.306;2022-09-03T00:04:21;99571.66;;;17.27;47.28
56671;BME280;42545;50.054;8.306;2022-09-03T00:06:59;99577.00;;;17.25;47.70
56671;BME280;42545;50.054;8.306;2022-09-03T00:09:30;99575.25;;;17.23;47.08
56671;BME280;42545;50.054;8.306;2022-09-03T00:12:04;99575.31;;;17.21;47.31
56671;BME280;42545;50.054;8.306;2022-09-03T00:14:38;99570.00;;;17.20;47.43
56671;BME280;42545;50.054;8.306;2022-09-03T00:17:10;99570.91;;;17.19;47.59
56671;BME280;42545;50.054;8.306;2022-09-03T00:19:45;99576.25;;;17.17;47.70
56671;BME280;42545;50.054;8.306;2022-09-03T00:22:17;99571.03;;;17.13;47.91
56671;BME280;42545;50.054;8.306;2022-09-03T00:24:46;99573.72;;;17.09;47.87
56671;BME280;42545;50.054;8.306;2022-09-03T00:27:16;99572.94;;;17.04;47.91
56671;BME280;42545;50.054;8.306;2022-09-03T00:29:48;99578.28;;;17.03;48.44
56671;BME280;42545;50.054;8.306;2022-09-03T00:32:21;99576.59;;;16.99;48.26
56671;BME280;42545;50.054;8.306;2022-09-03T00:34:56;99566.97;;;16.90;48.34
56671;BME280;42545;50.054;8.306;2022-09-03T00:37:26;99573.19;;;16.90;48.73
56671;BME280;42545;50.054;8.306;2022-09-03T00:39:54;99573.22;;;16.89;48.97
56671;BME280;42545;50.054;8.306;2022-09-03T00:42:38;99575.94;;;16.84;49.06
56671;BME280;42545;50.054;8.306;2022-09-03T00:45:14;99564.41;;;16.81;49.29
56671;BME280;42545;50.054;8.306;2022-09-03T00:47:56;99571.53;;;16.82;49.19
56671;BME280;42545;50.054;8.306;2022-09-03T00:50:37;99563.53;;;16.82;49.40
56671;BME280;42545;50.054;8.306;2022-09-03T00:53:10;99561.75;;;16.81;49.13
56671;BME280;42545;50.054;8.306;2022-09-03T00:55:48;99552.91;;;16.79;49.15
56671;BME280;42545;50.054;8.306;2022-09-03T00:58:36;99553.78;;;16.79;49.05
56671;BME280;42545;50.054;8.306;2022-09-03T01:01:14;99553.84;;;16.78;49.16
56671;BME280;42545;50.054;8.306;2022-09-03T01:03:57;99553.00;;;16.74;48.83
56671;BME280;42545;50.054;8.306;2022-09-03T01:06:38;99558.25;;;16.77;48.83
56671;BME280;42545;50.054;8.306;2022-09-03T01:09:20;99560.03;;;16.78;48.86
56671;BME280;42545;50.054;8.306;2022-09-03T01:11:58;99567.19;;;16.76;48.85
56671;BME280;42545;50.054;8.306;2022-09-03T01:14:36;99560.06;;;16.75;48.92
56671;BME280;42545;50.054;8.306;2022-09-03T01:17:12;99558.34;;;16.72;49.18
56671;BME280;42545;50.054;8.306;2022-09-03T01:20:02;99560.16;;;16.70;49.06
56671;BME280;42545;50.054;8.306;2022-09-03T01:25:53;99561.09;;;16.66;49.23
56671;BME280;42545;50.054;8.306;2022-09-03T01:28:41;99557.59;;;16.64;49.52
56671;BME280;42545;50.054;8.306;2022-09-03T01:31:19;99554.06;;;16.64;49.33
56671;BME280;42545;50.054;8.306;2022-09-03T01:33:57;99555.84;;;16.65;49.67
56671;BME280;42545;50.054;8.306;2022-09-03T01:36:41;99563.81;;;16.65;49.70
56671;BME280;42545;50.054;8.306;2022-09-03T01:39:20;99554.94;;;16.63;49.77
56671;BME280;42545;50.054;8.306;2022-09-03T01:41:59;99557.59;;;16.64;50.07
56671;BME280;42545;50.054;8.306;2022-09-03T01:44:59;99552.34;;;16.61;50.00
56671;BME280;42545;50.054;8.306;2022-09-03T01:47:42;99561.19;;;16.62;50.30
56671;BME280;42545;50.054;8.306;2022-09-03T01:50:23;99551.53;;;16.56;50.45
56671;BME280;42545;50.054;8.306;2022-09-03T01:52:55;99554.22;;;16.55;50.58
56671;BME280;42545;50.054;8.306;2022-09-03T01:55:30;99548.91;;;16.51;50.68
56671;BME280;42545;50.054;8.306;2022-09-03T01:58:01;99561.41;;;16.48;50.62
56671;BME280;42545;50.054;8.306;2022-09-03T02:00:37;99552.56;;;16.46;50.59
56671;BME280;42545;50.054;8.306;2022-09-03T02:03:08;99549.97;;;16.43;50.64
56671;BME280;42545;50.054;8.306;2022-09-03T02:05:36;99557.97;;;16.41;50.43
56671;BME280;42545;50.054;8.306;2022-09-03T02:08:04;99561.50;;;16.42;50.64
56671;BME280;42545;50.054;8.306;2022-09-03T02:10:37;99565.94;;;16.43;50.52
56671;BME280;42545;50.054;8.306;2022-09-03T02:13:09;99566.81;;;16.45;50.66
56671;BME280;42545;50.054;8.306;2022-09-03T02:15:43;99563.19;;;16.47;50.49
56671;BME280;42545;50.054;8.306;2022-09-03T02:18:16;99564.09;;;16.46;50.77
56671;BME280;42545;50.054;8.306;2022-09-03T02:20:44;99559.66;;;16.48;50.77
56671;BME280;42545;50.054;8.306;2022-09-03T02:23:12;99561.38;;;16.49;50.73
56671;BME280;42545;50.054;8.306;2022-09-03T02:25:42;99553.41;;;16.48;50.90
56671;BME280;42545;50.054;8.306;2022-09-03T02:28:11;99551.59;;;16.51;50.70
56671;BME280;42545;50.054;8.306;2022-09-03T02:30:44;99534.00;;;16.41;50.57
56671;BME280;42545;50.054;8.306;2022-09-03T02:33:15;99558.59;;;16.57;50.65
56671;BME280;42545;50.054;8.306;2022-09-03T02:35:43;99558.56;;;16.59;50.34
56671;BME280;42545;50.054;8.306;2022-09-03T02:38:12;99548.00;;;16.56;50.65
56671;BME280;42545;50.054;8.306;2022-09-03T02:40:46;99554.06;;;16.62;50.57
56671;BME280;42545;50.054;8.306;2022-09-03T02:43:16;99558.53;;;16.62;50.82
56671;BME280;42545;50.054;8.306;2022-09-03T02:45:47;99550.50;;;16.65;50.78
56671;BME280;42545;50.054;8.306;2022-09-03T02:48:22;99557.56;;;16.66;50.76
56671;BME280;42545;50.054;8.306;2022-09-03T02:50:52;99556.69;;;16.65;51.17
56671;BME280;42545;50.054;8.306;2022-09-03T02:53:19;99556.69;;;16.65;51.15
56671;BME280;42545;50.054;8.306;2022-09-03T02:55:46;99562.84;;;16.69;51.21
56671;BME280;42545;50.054;8.306;2022-09-03T02:58:16;99568.19;;;16.69;51.40
56671;BME280;42545;50.054;8.306;2022-09-03T03:00:42;99565.53;;;16.67;51.68
56671;BME280;42545;50.054;8.306;2022-09-03T03:03:24;99559.34;;;16.67;51.34
56671;BME280;42545;50.054;8.306;2022-09-03T03:05:55;99556.72;;;16.64;51.67
56671;BME280;42545;50.054;8.306;2022-09-03T03:08:24;99562.03;;;16.64;51.58
56671;BME280;42545;50.054;8.306;2022-09-03T03:11:00;99558.53;;;16.62;51.23
56671;BME280;42545;50.054;8.306;2022-09-03T03:13:29;99550.56;;;16.60;51.58
56671;BME280;42545;50.054;8.306;2022-09-03T03:15:56;99553.22;;;16.60;51.83
56671;BME280;42545;50.054;8.306;2022-09-03T03:18:25;99554.16;;;16.59;51.87
56671;BME280;42545;50.054;8.306;2022-09-03T03:20:54;99555.94;;;16.57;52.29
56671;BME280;42545;50.054;8.306;2022-09-03T03:23:21;99551.53;;;16.56;52.46
56671;BME280;42545;50.054;8.306;2022-09-03T03:25:49;99546.19;;;16.56;52.17
56671;BME280;42545;50.054;8.306;2022-09-03T03:28:17;99547.06;;;16.57;52.34
56671;BME280;42545;50.054;8.306;2022-09-03T03:30:45;99548.84;;;16.58;51.93
56671;BME280;42545;50.054;8.306;2022-09-03T03:33:13;99552.38;;;16.58;51.98
56671;BME280;42545;50.054;8.306;2022-09-03T03:35:45;99547.03;;;16.60;52.10
56671;BME280;42545;50.054;8.306;2022-09-03T03:38:12;99559.41;;;16.62;52.37
56671;BME280;42545;50.054;8.306;2022-09-03T03:40:39;99556.75;;;16.62;52.05
56671;BME280;42545;50.054;8.306;2022-09-03T03:43:05;99549.66;;;16.61;52.38
56671;BME280;42545;50.054;8.306;2022-09-03T03:45:55;99546.16;;;16.59;52.00
56671;BME280;42545;50.054;8.306;2022-09-03T03:48:26;99541.72;;;16.58;52.10
56671;BME280;42545;50.054;8.306;2022-09-03T03:51:02;99539.06;;;16.57;52.07
56671;BME280;42545;50.054;8.306;2022-09-03T03:53:31;99543.56;;;16.53;52.19
56671;BME280;42545;50.054;8.306;2022-09-03T03:56:00;99534.75;;;16.49;52.32
56671;BME280;42545;50.054;8.306;2022-09-03T03:58:29;99546.28;;;16.50;52.31
56671;BME280;42545;50.054;8.306;2022-09-03T04:01:03;99548.09;;;16.46;52.77
56671;BME280;42545;50.054;8.306;2022-09-03T04:03:33;99537.50;;;16.45;52.54
56671;BME280;42545;50.054;8.306;2022-09-03T04:06:03;99543.69;;;16.45;52.61
56671;BME280;42545;50.054;8.306;2022-09-03T04:08:34;99541.03;;;16.45;52.49
56671;BME280;42545;50.054;8.306;2022-09-03T04:11:03;99542.84;;;16.43;52.79
56671;BME280;42545;50.054;8.306;2022-09-03T04:13:32;99542.88;;;16.42;52.67
56671;BME280;42545;50.054;8.306;2022-09-03T04:16:00;99542.03;;;16.38;53.09
56671;BME280;42545;50.054;8.306;2022-09-03T04:18:29;99541.25;;;16.31;53.31
56671;BME280;42545;50.054;8.306;2022-09-03T04:20:59;99544.81;;;16.30;53.06
56671;BME280;42545;50.054;8.306;2022-09-03T04:23:30;99544.84;;;16.27;53.55
56671;BME280;42545;50.054;8.306;2022-09-03T04:25:58;99540.50;;;16.23;53.51
56671;BME280;42545;50.054;8.306;2022-09-03T04:28:26;99543.19;;;16.20;53.59
56671;BME280;42545;50.054;8.306;2022-09-03T04:30:53;99539.69;;;16.18;53.74
56671;BME280;42545;50.054;8.306;2022-09-03T04:33:23;99540.56;;;16.17;54.05
56671;BME280;42545;50.054;8.306;2022-09-03T04:35:50;99530.88;;;16.13;54.03
56671;BME280;42545;50.054;8.306;2022-09-03T04:38:19;99534.47;;;16.10;54.29
56671;BME280;42545;50.054;8.306;2022-09-03T04:40:52;99540.69;;;16.08;54.47
56671;BME280;42545;50.054;8.306;2022-09-03T04:43:18;99538.13;;;16.02;54.59
56671;BME280;42545;50.054;8.306;2022-09-03T04:45:45;99537.28;;;16.01;54.38
56671;BME280;42545;50.054;8.306;2022-09-03T04:48:13;99539.94;;;16.00;54.64
56671;BME280;42545;50.054;8.306;2022-09-03T04:50:40;99537.31;;;15.98;54.72
56671;BME280;42545;50.054;8.306;2022-09-03T04:53:09;99539.06;;;15.99;54.28
56671;BME280;42545;50.054;8.306;2022-09-03T04:55:37;99542.63;;;15.98;54.42
56671;BME280;42545;50.054;8.306;2022-09-03T04:58:05;99544.41;;;15.99;54.68
56671;BME280;42545;50.054;8.306;2022-09-03T05:00:34;99544.41;;;15.99;54.71
56671;BME280;42545;50.054;8.306;2022-09-03T05:03:01;99550.59;;;16.00;54.85
56671;BME280;42545;50.054;8.306;2022-09-03T05:05:29;99546.13;;;16.02;54.88
56671;BME280;42545;50.054;8.306;2022-09-03T05:07:58;99545.22;;;16.03;54.71
56671;BME280;42545;50.054;8.306;2022-09-03T05:10:26;99546.09;;;16.05;54.99
56671;BME280;42545;50.054;8.306;2022-09-03T05:12:57;99553.13;;;16.07;55.45
56671;BME280;42545;50.054;8.306;2022-09-03T05:15:28;99557.56;;;16.10;55.43
56671;BME280;42545;50.054;8.306;2022-09-03T05:17:56;99564.59;;;16.12;55.55
56671;BME280;42545;50.054;8.306;2022-09-03T05:20:24;99562.78;;;16.14;55.22
56671;BME280;42545;50.054;8.306;2022-09-03T05:22:52;99568.97;;;16.17;55.30
56671;BME280;42545;50.054;8.306;2022-09-03T05:25:19;99561.84;;;16.19;55.25
56671;BME280;42545;50.054;8.306;2022-09-03T05:27:48;99565.41;;;16.19;55.29
56671;BME280;42545;50.054;8.306;2022-09-03T05:30:15;99568.09;;;16.18;55.37
56671;BME280;42545;50.054;8.306;2022-09-03T05:32:44;99570.72;;;16.19;55.73
56671;BME280;42545;50.054;8.306;2022-09-03T05:35:11;99565.41;;;16.19;56.23
56671;BME280;42545;50.054;8.306;2022-09-03T05:37:38;99573.38;;;16.19;56.14
56671;BME280;42545;50.054;8.306;2022-09-03T05:40:06;99576.09;;;16.16;56.31
56671;BME280;42545;50.054;8.306;2022-09-03T05:42:38;99587.63;;;16.15;56.19
56671;BME280;42545;50.054;8.306;2022-09-03T05:45:06;99591.19;;;16.14;56.56
56671;BME280;42545;50.054;8.306;2022-09-03T05:47:35;99595.59;;;16.15;56.77
56671;BME280;42545;50.054;8.306;2022-09-03T05:50:06;99596.50;;;16.16;56.58
56671;BME280;42545;50.054;8.306;2022-09-03T05:52:35;99603.59;;;16.15;56.65
56671;BME280;42545;50.054;8.306;2022-09-03T05:55:02;99600.94;;;16.15;57.10
56671;BME280;42545;50.054;8.306;2022-09-03T05:57:30;99606.25;;;16.13;57.56
56671;BME280;42545;50.054;8.306;2022-09-03T05:59:57;99611.63;;;16.12;58.48
56671;BME280;42545;50.054;8.306;2022-09-03T06:02:24;99616.97;;;16.12;59.06
56671;BME280;42545;50.054;8.306;2022-09-03T06:04:51;99612.50;;;16.12;60.52
56671;BME280;42545;50.054;8.306;2022-09-03T06:07:20;99623.19;;;16.08;61.14
56671;BME280;42545;50.054;8.306;2022-09-03T06:09:47;99619.69;;;16.04;62.40
56671;BME280;42545;50.054;8.306;2022-09-03T06:12:14;99620.66;;;16.00;63.35
56671;BME280;42545;50.054;8.306;2022-09-03T06:14:41;99614.56;;;15.92;63.86
56671;BME280;42545;50.054;8.306;2022-09-03T06:17:08;99615.53;;;15.85;64.26
56671;BME280;42545;50.054;8.306;2022-09-03T06:19:36;99620.88;;;15.80;65.16
56671;BME280;42545;50.054;8.306;2022-09-03T06:22:03;99610.31;;;15.72;65.31
56671;BME280;42545;50.054;8.306;2022-09-03T06:24:32;99620.13;;;15.66;65.11
56671;BME280;42545;50.054;8.306;2022-09-03T06:26:59;99623.72;;;15.65;66.04
56671;BME280;42545;50.054;8.306;2022-09-03T06:29:25;99625.53;;;15.61;66.23
56671;BME280;42545;50.054;8.306;2022-09-03T06:31:53;99628.19;;;15.61;66.40
56671;BME280;42545;50.054;8.306;2022-09-03T06:34:20;99624.66;;;15.57;66.37
56671;BME280;42545;50.054;8.306;2022-09-03T06:36:49;99637.09;;;15.57;66.85
56671;BME280;42545;50.054;8.306;2022-09-03T06:39:17;99636.16;;;15.60;67.40
56671;BME280;42545;50.054;8.306;2022-09-03T06:41:44;99631.72;;;15.58;67.92
56671;BME280;42545;50.054;8.306;2022-09-03T06:44:12;99638.81;;;15.60;68.16
56671;BME280;42545;50.054;8.306;2022-09-03T06:46:39;99636.19;;;15.58;68.95
56671;BME280;42545;50.054;8.306;2022-09-03T06:49:07;99629.06;;;15.58;69.94
56671;BME280;42545;50.054;8.306;2022-09-03T06:51:34;99630.84;;;15.60;70.21
56671;BME280;42545;50.054;8.306;2022-09-03T06:54:04;99630.00;;;15.56;69.01
56671;BME280;42545;50.054;8.306;2022-09-03T06:56:31;99629.97;;;15.61;69.34
56671;BME280;42545;50.054;8.306;2022-09-03T06:59:04;99630.81;;;15.63;68.79
56671;BME280;42545;50.054;8.306;2022-09-03T07:01:32;99637.84;;;15.70;69.28
56671;BME280;42545;50.054;8.306;2022-09-03T07:04:01;99636.91;;;15.75;69.78
56671;BME280;42545;50.054;8.306;2022-09-03T07:06:30;99631.53;;;15.80;70.30
56671;BME280;42545;50.054;8.306;2022-09-03T07:08:57;99629.69;;;15.85;70.27
56671;BME280;42545;50.054;8.306;2022-09-03T07:11:25;99624.34;;;15.88;69.76
56671;BME280;42545;50.054;8.306;2022-09-03T07:13:54;99621.69;;;15.88;69.13
56671;BME280;42545;50.054;8.306;2022-09-03T07:16:24;99624.28;;;15.91;68.22
56671;BME280;42545;50.054;8.306;2022-09-03T07:18:51;99626.91;;;15.96;68.86
56671;BME280;42545;50.054;8.306;2022-09-03T07:21:20;99625.97;;;16.00;69.05
56671;BME280;42545;50.054;8.306;2022-09-03T07:23:48;99626.81;;;16.02;68.33
56671;BME280;42545;50.054;8.306;2022-09-03T07:26:17;99628.63;;;16.00;67.34
56671;BME280;42545;50.054;8.306;2022-09-03T07:28:45;99635.75;;;15.98;68.17
56671;BME280;42545;50.054;8.306;2022-09-03T07:31:14;99626.84;;;16.01;68.46
56671;BME280;42545;50.054;8.306;2022-09-03T07:33:44;99629.50;;;16.01;69.45
56671;BME280;42545;50.054;8.306;2022-09-03T07:36:13;99628.63;;;16.00;70.01
56671;BME280;42545;50.054;8.306;2022-09-03T07:38:41;99631.28;;;16.00;70.89
56671;BME280;42545;50.054;8.306;2022-09-03T07:41:10;99634.88;;;15.98;70.96
56671;BME280;42545;50.054;8.306;2022-09-03T07:43:39;99634.88;;;15.98;72.11
56671;BME280;42545;50.054;8.306;2022-09-03T07:46:07;99637.56;;;15.96;73.24
56671;BME280;42545;50.054;8.306;2022-09-03T07:48:37;99635.88;;;15.89;73.67
56671;BME280;42545;50.054;8.306;2022-09-03T07:51:06;99640.34;;;15.84;74.31
56671;BME280;42545;50.054;8.306;2022-09-03T07:53:33;99647.47;;;15.82;76.46
56671;BME280;42545;50.054;8.306;2022-09-03T07:56:03;99648.44;;;15.76;77.46
56671;BME280;42545;50.054;8.306;2022-09-03T07:58:30;99652.00;;;15.70;78.79
56671;BME280;42545;50.054;8.306;2022-09-03T08:00:58;99647.66;;;15.65;80.89
56671;BME280;42545;50.054;8.306;2022-09-03T08:03:25;99657.44;;;15.58;81.78
56671;BME280;42545;50.054;8.306;2022-09-03T08:05:51;99646.03;;;15.50;83.45
56671;BME280;42545;50.054;8.306;2022-09-03T08:08:20;99651.41;;;15.42;84.73
56671;BME280;42545;50.054;8.306;2022-09-03T08:10:49;99651.47;;;15.34;86.03
56671;BME280;42545;50.054;8.306;2022-09-03T08:13:15;99656.81;;;15.31;87.51
56671;BME280;42545;50.054;8.306;2022-09-03T08:15:42;99656.81;;;15.31;88.81
56671;BME280;42545;50.054;8.306;2022-09-03T08:18:09;99663.91;;;15.31;89.57
56671;BME280;42545;50.054;8.306;2022-09-03T08:20:36;99663.03;;;15.32;90.76
56671;BME280;42545;50.054;8.306;2022-09-03T08:23:04;99667.44;;;15.31;90.98
56671;BME280;42545;50.054;8.306;2022-09-03T08:25:32;99671.88;;;15.32;92.05
56671;BME280;42545;50.054;8.306;2022-09-03T08:27:59;99662.13;;;15.34;92.85
56671;BME280;42545;50.054;8.306;2022-09-03T08:30:26;99651.47;;;15.36;93.45
56671;BME280;42545;50.054;8.306;2022-09-03T08:32:53;99659.38;;;15.42;94.60
56671;BME280;42545;50.054;8.306;2022-09-03T08:35:22;99662.88;;;15.46;95.22
56671;BME280;42545;50.054;8.306;2022-09-03T08:37:49;99670.06;;;15.37;93.17
56671;BME280;42545;50.054;8.306;2022-09-03T08:40:19;99663.94;;;15.29;91.84
56671;BME280;42545;50.054;8.306;2022-09-03T08:42:57;99670.16;;;15.30;92.16
56671;BME280;42545;50.054;8.306;2022-09-03T08:45:31;99665.72;;;15.29;92.62
56671;BME280;42545;50.054;8.306;2022-09-03T08:48:04;99665.69;;;15.32;93.82
56671;BME280;42545;50.054;8.306;2022-09-03T08:50:35;99664.75;;;15.39;94.11
56671;BME280;42545;50.054;8.306;2022-09-03T08:53:08;99684.19;;;15.44;94.93
56671;BME280;42545;50.054;8.306;2022-09-03T08:55:46;99697.44;;;15.47;94.06
56671;BME280;42545;50.054;8.306;2022-09-03T08:58:18;99690.34;;;15.48;93.59
56671;BME280;42545;50.054;8.306;2022-09-03T09:00:49;99685.00;;;15.52;94.29
56671;BME280;42545;50.054;8.306;2022-09-03T09:03:40;99689.34;;;15.60;95.15
56671;BME280;42545;50.054;8.306;2022-09-03T09:06:17;99691.94;;;15.67;95.25
56671;BME280;42545;50.054;8.306;2022-09-03T09:08:50;99691.91;;;15.72;95.68
56671;BME280;42545;50.054;8.306;2022-09-03T09:11:31;99689.25;;;15.69;94.11
56671;BME280;42545;50.054;8.306;2022-09-03T09:14:10;99691.00;;;15.71;93.11
56671;BME280;42545;50.054;8.306;2022-09-03T09:16:50;99697.22;;;15.70;92.59
56671;BME280;42545;50.054;8.306;2022-09-03T09:19:38;99701.66;;;15.74;93.32
56671;BME280;42545;50.054;8.306;2022-09-03T09:22:10;99703.41;;;15.75;91.58
56671;BME280;42545;50.054;8.306;2022-09-03T09:24:41;99711.41;;;15.75;90.74
56671;BME280;42545;50.054;8.306;2022-09-03T09:27:12;99710.47;;;15.78;90.74
56671;BME280;42545;50.054;8.306;2022-09-03T09:29:45;99706.00;;;15.83;90.65
56671;BME280;42545;50.054;8.306;2022-09-03T09:32:15;99711.28;;;15.86;90.49
56671;BME280;42545;50.054;8.306;2022-09-03T09:34:44;99703.25;;;15.88;90.08
56671;BME280;42545;50.054;8.306;2022-09-03T09:37:12;99701.44;;;15.91;89.03
56671;BME280;42545;50.054;8.306;2022-09-03T09:39:54;99711.13;;;15.99;88.60
56671;BME280;42545;50.054;8.306;2022-09-03T09:42:22;99706.63;;;16.05;88.38
56671;BME280;42545;50.054;8.306;2022-09-03T09:44:50;99713.53;;;16.22;88.63
56671;BME280;42545;50.054;8.306;2022-09-03T09:47:22;99716.91;;;16.38;88.54
56671;BME280;42545;50.054;8.306;2022-09-03T09:49:52;99707.00;;;16.47;87.82
56671;BME280;42545;50.054;8.306;2022-09-03T09:52:20;99715.72;;;16.59;87.08
56671;BME280;42545;50.054;8.306;2022-09-03T09:54:50;99701.41;;;16.66;85.18
56671;BME280;42545;50.054;8.306;2022-09-03T09:57:22;99701.28;;;16.75;84.97
56671;BME280;42545;50.054;8.306;2022-09-03T10:00:01;99699.38;;;16.86;84.35
56671;BME280;42545;50.054;8.306;2022-09-03T10:02:34;99698.38;;;16.94;82.35
56671;BME280;42545;50.054;8.306;2022-09-03T10:05:11;99700.03;;;17.01;82.52
56671;BME280;42545;50.054;8.306;2022-09-03T10:07:39;99699.13;;;17.05;80.02
56671;BME280;42545;50.054;8.306;2022-09-03T10:10:14;99697.22;;;17.10;79.83
56671;BME280;42545;50.054;8.306;2022-09-03T10:12:45;99689.16;;;17.15;80.16
56671;BME280;42545;50.054;8.306;2022-09-03T10:15:21;99697.13;;;17.18;79.34
56671;BME280;42545;50.054;8.306;2022-09-03T10:17:56;99696.16;;;17.23;79.81
56671;BME280;42545;50.054;8.306;2022-09-03T10:20:33;99705.00;;;17.24;78.05
56671;BME280;42545;50.054;8.306;2022-09-03T10:23:09;99704.06;;;17.26;78.66
56671;BME280;42545;50.054;8.306;2022-09-03T10:25:45;99704.84;;;17.33;78.72
56671;BME280;42545;50.054;8.306;2022-09-03T10:28:18;99699.38;;;17.41;78.50
56671;BME280;42545;50.054;8.306;2022-09-03T10:30:59;99693.88;;;17.50;77.72
56671;BME280;42545;50.054;8.306;2022-09-03T10:33:33;99700.81;;;17.62;77.90
56671;BME280;42545;50.054;8.306;2022-09-03T10:36:10;99693.50;;;17.72;76.67
56671;BME280;42545;50.054;8.306;2022-09-03T10:38:38;99697.81;;;17.79;76.20
56671;BME280;42545;50.054;8.306;2022-09-03T10:41:18;99693.16;;;17.92;75.99
56671;BME280;42545;50.054;8.306;2022-09-03T10:44:05;99698.22;;;18.07;74.19
56671;BME280;42545;50.054;8.306;2022-09-03T10:46:48;99692.72;;;18.15;74.91
56671;BME280;42545;50.054;8.306;2022-09-03T10:49:30;99695.28;;;18.19;74.30
56671;BME280;42545;50.054;8.306;2022-09-03T10:52:06;99698.78;;;18.21;72.70
56671;BME280;42545;50.054;8.306;2022-09-03T10:54:48;99698.72;;;18.24;72.27
56671;BME280;42545;50.054;8.306;2022-09-03T10:57:30;99695.84;;;18.35;72.84
56671;BME280;42545;50.054;8.306;2022-09-03T11:00:05;99698.16;;;18.51;72.90
56671;BME280;42545;50.054;8.306;2022-09-03T11:03:18;99698.75;;;18.65;72.29
56671;BME280;42545;50.054;8.306;2022-09-03T11:05:59;99693.09;;;18.79;72.32
56671;BME280;42545;50.054;8.306;2022-09-03T11:08:31;99698.06;;;18.96;72.31
56671;BME280;42545;50.054;8.306;2022-09-03T11:11:08;99688.19;;;18.99;70.86
56671;BME280;42545;50.054;8.306;2022-09-03T11:13:39;99688.22;;;18.98;70.92
56671;BME280;42545;50.054;8.306;2022-09-03T11:16:14;99687.44;;;18.93;71.03
56671;BME280;42545;50.054;8.306;2022-09-03T11:18:48;99684.13;;;18.83;70.92
56671;BME280;42545;50.054;8.306;2022-09-03T11:21:19;99679.69;;;18.80;71.36
56671;BME280;42545;50.054;8.306;2022-09-03T11:23:55;99676.06;;;18.85;72.09
56671;BME280;42545;50.054;8.306;2022-09-03T11:26:29;99673.31;;;18.89;71.71
56671;BME280;42545;50.054;8.306;2022-09-03T11:29:00;99677.66;;;18.93;70.47
56671;BME280;42545;50.054;8.306;2022-09-03T11:31:41;99677.56;;;18.96;70.96
56671;BME280;42545;50.054;8.306;2022-09-03T11:34:15;99676.47;;;19.05;70.84
56671;BME280;42545;50.054;8.306;2022-09-03T11:37:02;99672.75;;;19.11;70.40
56671;BME280;42545;50.054;8.306;2022-09-03T11:39:33;99669.00;;;19.18;70.17
56671;BME280;42545;50.054;8.306;2022-09-03T11:42:02;99667.06;;;19.25;70.15
56671;BME280;42545;50.054;8.306;2022-09-03T11:44:36;99657.97;;;19.32;68.90
56671;BME280;42545;50.054;8.306;2022-09-03T11:47:13;99659.34;;;19.48;69.35
56671;BME280;42545;50.054;8.306;2022-09-03T11:49:46;99662.56;;;19.61;68.16
56671;BME280;42545;50.054;8.306;2022-09-03T11:52:24;99668.56;;;19.69;67.78
56671;BME280;42545;50.054;8.306;2022-09-03T11:54:53;99662.16;;;19.76;67.63
56671;BME280;42545;50.054;8.306;2022-09-03T11:57:25;99663.72;;;19.85;66.86
56671;BME280;42545;50.054;8.306;2022-09-03T11:59:53;99667.00;;;19.95;67.42
56671;BME280;42545;50.054;8.306;2022-09-03T12:02:26;99658.78;;;20.03;67.99
56671;BME280;42545;50.054;8.306;2022-09-03T12:05:18;99655.09;;;20.05;67.73
56671;BME280;42545;50.054;8.306;2022-09-03T12:07:59;99651.53;;;20.06;67.23
56671;BME280;42545;50.054;8.306;2022-09-03T12:10:37;99649.47;;;20.14;67.20
56671;BME280;42545;50.054;8.306;2022-09-03T12:13:25;99642.13;;;20.23;66.58
56671;BME280;42545;50.054;8.306;2022-09-03T12:16:09;99641.13;;;20.25;66.51
56671;BME280;42545;50.054;8.306;2022-09-03T12:18:39;99632.47;;;20.17;65.83
56671;BME280;42545;50.054;8.306;2022-09-03T12:21:10;99630.03;;;20.08;66.93
56671;BME280;42545;50.054;8.306;2022-09-03T12:23:40;99628.56;;;19.97;66.78
56671;BME280;42545;50.054;8.306;2022-09-03T12:26:11;99631.41;;;19.91;67.60
56671;BME280;42545;50.054;8.306;2022-09-03T12:28:40;99635.06;;;19.89;67.96
56671;BME280;42545;50.054;8.306;2022-09-03T12:31:18;99629.84;;;19.84;68.41
56671;BME280;42545;50.054;8.306;2022-09-03T12:33:54;99621.03;;;19.81;68.58
56671;BME280;42545;50.054;8.306;2022-09-03T12:36:26;99627.00;;;19.89;68.42
56671;BME280;42545;50.054;8.306;2022-09-03T12:39:09;99626.91;;;19.93;67.89
56671;BME280;42545;50.054;8.306;2022-09-03T12:41:37;99630.19;;;20.03;68.38
56671;BME280;42545;50.054;8.306;2022-09-03T12:44:04;99615.69;;;20.10;68.07
56671;BME280;42545;50.054;8.306;2022-09-03T12:46:32;99612.56;;;20.24;67.33
56671;BME280;42545;50.054;8.306;2022-09-03T12:49:04;99620.91;;;20.45;66.79
56671;BME280;42545;50.054;8.306;2022-09-03T12:51:41;99615.09;;;20.59;66.68
56671;BME280;42545;50.054;8.306;2022-09-03T12:54:10;99614.44;;;20.80;66.67
56671;BME280;42545;50.054;8.306;2022-09-03T12:56:41;99612.81;;;21.03;65.95
56671;BME280;42545;50.054;8.306;2022-09-03T12:59:13;99614.75;;;21.24;65.50
56671;BME280;42545;50.054;8.306;2022-09-03T13:01:46;99628.06;;;21.54;65.19
56671;BME280;42545;50.054;8.306;2022-09-03T13:04:17;99619.78;;;21.60;63.34
56671;BME280;42545;50.054;8.306;2022-09-03T13:06:53;99605.44;;;21.61;63.54
56671;BME280;42545;50.054;8.306;2022-09-03T13:09:25;99616.09;;;21.63;63.09
56671;BME280;42545;50.054;8.306;2022-09-03T13:11:56;99619.31;;;21.49;62.55
56671;BME280;42545;50.054;8.306;2022-09-03T13:14:44;99618.63;;;21.41;64.05
56671;BME280;42545;50.054;8.306;2022-09-03T13:17:24;99617.94;;;21.36;64.69
56671;BME280;42545;50.054;8.306;2022-09-03T13:20:14;99618.09;;;21.31;64.95
56671;BME280;42545;50.054;8.306;2022-09-03T13:22:59;99612.72;;;21.31;65.10
56671;BME280;42545;50.054;8.306;2022-09-03T13:25:32;99620.78;;;21.31;65.30
56671;BME280;42545;50.054;8.306;2022-09-03T13:28:10;99611.88;;;21.30;64.66
56671;BME280;42545;50.054;8.306;2022-09-03T13:30:54;99614.50;;;21.32;64.50